Time;durP1;ratioP1;P1;durP2;ratioP2;P2;SDS_P1;SDS_P2;PMS_P1;PMS_P2;Temp;Humidity;BMP_temperature;BMP_pressure;BME280_temperature;BME280_humidity;BME280_pressure;Samples;Min_cycle;Max_cycle;Signal;HPM_P1;HPM_P2
2023/05/02 00:00:08;;;;;;;14.43;4.53;;;10.20;99.90;;;;;;5078175;28;20425;-76
2023/05/02 00:02:35;;;;;;;13.75;4.70;;;10.00;99.90;;;;;;5069399;28;20430;-77
2023/05/02 00:05:00;;;;;;;12.07;3.83;;;10.10;99.90;;;;;;5069839;28;20514;-74
2023/05/02 00:07:27;;;;;;;7.43;3.30;;;10.10;99.90;;;;;;5078310;28;20503;-75
2023/05/02 00:09:52;;;;;;;14.63;4.55;;;10.00;99.90;;;;;;5069196;28;20435;-76
2023/05/02 00:12:18;;;;;;;11.40;3.22;;;9.90;99.90;;;;;;5065662;28;20900;-74
2023/05/02 00:14:43;;;;;;;13.43;3.45;;;10.00;99.90;;;;;;5081725;28;20418;-75
2023/05/02 00:17:17;;;;;;;13.33;3.30;;;9.90;99.90;;;;;;5075453;28;20482;-75
2023/05/02 00:19:42;;;;;;;9.95;3.78;;;10.00;99.90;;;;;;5081420;28;20922;-76
2023/05/02 00:22:08;;;;;;;13.63;4.20;;;10.00;99.90;;;;;;5087366;28;20457;-76
2023/05/02 00:24:34;;;;;;;10.48;3.40;;;10.10;99.90;;;;;;5085568;28;20426;-77
2023/05/02 00:27:00;;;;;;;12.32;3.88;;;10.00;99.90;;;;;;5067207;28;21067;-75
2023/05/02 00:29:25;;;;;;;14.70;3.28;;;9.90;99.90;;;;;;5065506;28;20423;-76
2023/05/02 00:31:51;;;;;;;9.70;2.78;;;9.90;99.90;;;;;;5066774;28;20434;-75
2023/05/02 00:34:16;;;;;;;9.77;3.10;;;9.90;99.90;;;;;;5077962;28;20417;-78
2023/05/02 00:36:42;;;;;;;10.07;3.17;;;9.70;99.90;;;;;;5082156;28;20916;-76
2023/05/02 00:39:08;;;;;;;10.33;2.90;;;9.70;99.90;;;;;;5072502;28;20440;-75
2023/05/02 00:41:34;;;;;;;12.57;2.90;;;9.60;99.90;;;;;;5074886;28;20420;-78
2023/05/02 00:43:59;;;;;;;9.40;2.63;;;9.70;99.90;;;;;;5074304;28;20442;-77
2023/05/02 00:46:26;;;;;;;8.27;2.97;;;9.60;99.90;;;;;;5083533;28;20421;-77
2023/05/02 00:48:51;;;;;;;9.50;3.15;;;9.70;99.90;;;;;;5070349;28;20418;-76
2023/05/02 00:51:17;;;;;;;12.60;3.20;;;9.60;99.90;;;;;;5089024;28;21209;-76
2023/05/02 00:53:43;;;;;;;8.55;3.08;;;9.70;99.90;;;;;;5076216;28;20429;-75
2023/05/02 00:56:09;;;;;;;10.00;2.90;;;9.60;99.90;;;;;;5068302;28;20424;-76
2023/05/02 00:58:37;;;;;;;8.00;3.40;;;9.70;99.90;;;;;;5069429;28;20440;-76
2023/05/02 01:01:23;;;;;;;8.47;2.83;;;9.70;99.90;;;;;;5061605;28;20423;-76
2023/05/02 01:04:07;;;;;;;12.80;2.87;;;9.80;99.90;;;;;;5065850;28;20495;-76
2023/05/02 01:06:41;;;;;;;9.40;3.83;;;9.90;99.90;;;;;;5083438;28;21109;-77
2023/05/02 01:09:45;;;;;;;8.93;3.50;;;9.90;99.90;;;;;;5065476;28;20459;-75
2023/05/02 01:12:37;;;;;;;7.57;2.83;;;9.90;99.90;;;;;;5075121;28;20422;-76
2023/05/02 01:15:06;;;;;;;6.90;2.80;;;9.90;99.90;;;;;;5084029;28;20744;-77
2023/05/02 01:17:34;;;;;;;6.72;2.78;;;9.90;99.90;;;;;;5086481;28;20804;-75
2023/05/02 01:20:07;;;;;;;6.07;2.58;;;9.90;99.90;;;;;;5072129;28;20430;-76
2023/05/02 01:22:34;;;;;;;9.18;3.33;;;9.90;99.90;;;;;;5060427;28;20414;-75
2023/05/02 01:25:12;;;;;;;10.80;3.35;;;9.90;99.90;;;;;;5069995;28;20453;-76
2023/05/02 01:27:47;;;;;;;12.50;3.80;;;9.80;99.90;;;;;;5062869;28;20415;-76
2023/05/02 01:30:15;;;;;;;14.90;4.43;;;9.70;99.90;;;;;;5060671;28;20446;-76
2023/05/02 01:32:44;;;;;;;18.95;5.80;;;9.40;99.90;;;;;;5061576;28;20457;-76
2023/05/02 01:35:12;;;;;;;22.30;5.05;;;9.40;99.90;;;;;;5064574;28;20451;-76
2023/05/02 01:37:40;;;;;;;23.52;5.75;;;9.40;99.90;;;;;;5065038;28;20415;-76
2023/05/02 01:40:08;;;;;;;20.55;5.80;;;9.30;99.90;;;;;;5066650;28;20481;-77
2023/05/02 01:42:36;;;;;;;21.17;4.43;;;9.10;99.90;;;;;;5064589;28;20798;-76
2023/05/02 01:45:03;;;;;;;19.30;5.88;;;9.00;99.90;;;;;;5064081;28;20833;-76
2023/05/02 01:47:32;;;;;;;18.40;4.97;;;9.00;99.90;;;;;;5065194;28;20786;-75
2023/05/02 01:49:58;;;;;;;19.00;5.18;;;9.10;99.90;;;;;;5074165;28;20413;-76
2023/05/02 01:52:26;;;;;;;17.20;5.35;;;9.10;99.90;;;;;;5087785;28;20420;-76
2023/05/02 01:54:54;;;;;;;20.52;4.13;;;9.00;99.90;;;;;;5048747;28;20417;-76
2023/05/02 01:57:20;;;;;;;17.27;5.57;;;8.90;99.90;;;;;;5065057;28;20886;-77
2023/05/02 01:59:47;;;;;;;21.02;5.72;;;9.00;99.90;;;;;;5077007;28;20431;-76
2023/05/02 02:02:14;;;;;;;22.40;4.75;;;9.10;99.90;;;;;;5069660;28;20443;-76
2023/05/02 02:04:41;;;;;;;22.60;5.43;;;8.90;99.90;;;;;;5066865;28;20436;-77
2023/05/02 02:07:11;;;;;;;20.85;6.00;;;8.90;99.90;;;;;;5072818;28;20427;-76
2023/05/02 02:09:39;;;;;;;21.42;5.90;;;8.70;99.90;;;;;;5071783;28;20439;-75
2023/05/02 02:12:10;;;;;;;20.20;4.65;;;8.70;99.90;;;;;;5071792;28;20419;-77
2023/05/02 02:14:38;;;;;;;23.05;6.63;;;8.70;99.90;;;;;;5069603;28;20449;-76
2023/05/02 02:17:23;;;;;;;21.63;5.85;;;8.70;99.90;;;;;;5067929;28;20427;-76
2023/05/02 02:19:52;;;;;;;22.25;6.20;;;8.70;99.90;;;;;;5081943;28;20461;-75
2023/05/02 02:22:20;;;;;;;22.23;6.15;;;8.60;99.90;;;;;;5075620;28;20427;-77
2023/05/02 02:24:47;;;;;;;24.85;6.03;;;8.50;99.90;;;;;;5069865;28;20426;-76
2023/05/02 02:27:13;;;;;;;19.30;6.47;;;8.50;99.90;;;;;;5079277;28;20422;-76
2023/05/02 02:29:39;;;;;;;24.42;5.93;;;8.40;99.90;;;;;;5079638;28;20433;-74
2023/05/02 02:32:05;;;;;;;23.35;6.35;;;8.30;99.90;;;;;;5081203;28;20415;-74
2023/05/02 02:34:30;;;;;;;21.13;4.93;;;8.30;99.90;;;;;;5070988;28;20857;-75
2023/05/02 02:37:03;;;;;;;18.27;5.05;;;8.30;99.90;;;;;;5070874;28;20411;-75
2023/05/02 02:40:03;;;;;;;15.82;5.15;;;8.30;99.90;;;;;;5072671;28;20437;-76
2023/05/02 02:42:54;;;;;;;19.85;5.47;;;8.20;99.90;;;;;;5067166;28;20435;-76
2023/05/02 02:45:37;;;;;;;30.10;5.30;;;8.20;99.90;;;;;;5061945;28;20439;-76
2023/05/02 02:48:20;;;;;;;22.02;5.68;;;8.20;99.90;;;;;;5081387;28;20429;-76
2023/05/02 02:51:00;;;;;;;20.52;5.45;;;8.30;99.90;;;;;;5073542;28;20442;-75
2023/05/02 02:53:55;;;;;;;22.90;4.95;;;8.30;99.90;;;;;;5060390;28;20416;-76
2023/05/02 02:56:27;;;;;;;19.30;4.60;;;8.20;99.90;;;;;;5049718;28;20425;-76
2023/05/02 02:59:18;;;;;;;17.33;4.30;;;8.20;99.90;;;;;;5072197;28;20496;-75
2023/05/02 03:02:04;;;;;;;18.45;5.53;;;8.00;99.90;;;;;;5071097;28;20504;-75
2023/05/02 03:04:32;;;;;;;21.08;5.80;;;8.20;99.90;;;;;;5064248;28;20418;-76
2023/05/02 03:07:00;;;;;;;18.25;4.47;;;8.10;99.90;;;;;;5069993;28;20421;-76
2023/05/02 03:09:29;;;;;;;18.13;4.45;;;8.10;99.90;;;;;;5069041;28;20407;-76
2023/05/02 03:11:56;;;;;;;20.13;4.65;;;8.20;99.90;;;;;;5074121;28;20480;-76
2023/05/02 03:14:22;;;;;;;17.80;4.55;;;8.10;99.90;;;;;;5065352;28;20419;-77
2023/05/02 03:16:49;;;;;;;17.15;4.20;;;8.10;99.90;;;;;;5068103;28;20431;-76
2023/05/02 03:19:14;;;;;;;19.58;4.30;;;8.10;99.90;;;;;;5087011;28;20436;-77
2023/05/02 03:21:40;;;;;;;17.30;5.05;;;8.10;99.90;;;;;;5076103;28;20410;-76
2023/05/02 03:24:06;;;;;;;15.05;4.40;;;7.90;99.90;;;;;;5086902;28;20524;-75
2023/05/02 03:26:31;;;;;;;14.73;3.83;;;7.80;99.90;;;;;;5064558;28;20426;-77
2023/05/02 03:28:57;;;;;;;13.95;3.88;;;7.60;99.90;;;;;;5069419;28;20778;-76
2023/05/02 03:31:23;;;;;;;17.75;3.47;;;7.70;99.90;;;;;;5084153;28;20737;-75
2023/05/02 03:33:48;;;;;;;18.60;5.80;;;7.80;99.90;;;;;;5075473;28;20509;-75
2023/05/02 03:36:15;;;;;;;21.02;4.00;;;7.70;99.90;;;;;;5081096;28;20419;-75
2023/05/02 03:38:41;;;;;;;11.38;3.58;;;7.80;99.90;;;;;;5086057;28;20435;-76
2023/05/02 03:41:06;;;;;;;12.50;4.27;;;7.70;99.90;;;;;;5065825;28;20415;-75
2023/05/02 03:43:32;;;;;;;10.13;3.70;;;7.70;99.90;;;;;;5064304;28;20444;-75
2023/05/02 03:46:05;;;;;;;15.57;3.20;;;7.70;99.90;;;;;;5081417;28;20471;-77
2023/05/02 03:48:30;;;;;;;10.45;2.90;;;7.60;99.90;;;;;;5064850;28;20431;-76
2023/05/02 03:50:56;;;;;;;13.07;3.47;;;7.70;99.90;;;;;;5073938;28;20418;-75
2023/05/02 03:53:22;;;;;;;13.83;2.67;;;7.70;99.90;;;;;;5072671;28;20428;-76
2023/05/02 03:55:47;;;;;;;11.33;3.70;;;7.70;99.90;;;;;;5081490;28;20444;-76
2023/05/02 03:58:13;;;;;;;10.63;2.37;;;7.70;99.90;;;;;;5073952;28;20427;-76
2023/05/02 04:00:39;;;;;;;19.67;4.83;;;7.80;99.90;;;;;;5079655;28;20949;-76
2023/05/02 04:03:06;;;;;;;11.37;3.23;;;7.60;99.90;;;;;;5068184;28;20984;-76
2023/05/02 04:05:31;;;;;;;16.88;3.55;;;7.70;99.90;;;;;;5075107;28;20812;-76
2023/05/02 04:07:57;;;;;;;11.90;2.63;;;7.70;99.90;;;;;;5074122;28;20463;-75
2023/05/02 04:10:23;;;;;;;10.20;2.67;;;7.70;99.90;;;;;;5065045;28;20424;-76
2023/05/02 04:12:49;;;;;;;12.60;2.40;;;7.70;99.90;;;;;;5073982;28;20890;-77
2023/05/02 04:15:14;;;;;;;9.75;3.00;;;7.70;99.90;;;;;;5067107;28;20814;-76
2023/05/02 04:17:40;;;;;;;9.77;2.07;;;7.70;99.90;;;;;;5074364;28;20432;-77
2023/05/02 04:20:07;;;;;;;7.70;2.40;;;7.60;99.90;;;;;;5076844;28;20429;-76
2023/05/02 04:22:33;;;;;;;7.15;1.75;;;7.60;99.90;;;;;;5072308;28;20877;-75
2023/05/02 04:24:59;;;;;;;11.32;2.30;;;7.60;99.90;;;;;;5067997;28;20459;-76
2023/05/02 04:27:25;;;;;;;6.88;2.28;;;7.60;99.90;;;;;;5075310;28;20767;-76
2023/05/02 04:29:52;;;;;;;7.68;2.35;;;7.50;99.90;;;;;;5085714;28;20489;-75
2023/05/02 04:32:19;;;;;;;10.38;2.08;;;7.70;99.90;;;;;;5081336;28;20440;-76
2023/05/02 04:34:44;;;;;;;11.27;2.50;;;7.60;99.90;;;;;;5084731;28;20429;-75
2023/05/02 04:37:10;;;;;;;7.80;1.92;;;7.40;99.90;;;;;;5074103;28;20937;-74
2023/05/02 04:39:36;;;;;;;9.52;2.63;;;7.60;99.90;;;;;;5066984;28;20435;-75
2023/05/02 04:42:02;;;;;;;11.10;3.38;;;7.50;99.90;;;;;;5051092;28;20425;-74
2023/05/02 04:44:28;;;;;;;6.47;1.63;;;7.70;99.90;;;;;;5066914;28;20446;-78
2023/05/02 04:46:53;;;;;;;6.07;2.03;;;7.60;99.90;;;;;;5067764;28;20911;-75
2023/05/02 04:49:19;;;;;;;9.27;2.27;;;7.60;99.90;;;;;;5065982;28;20978;-74
2023/05/02 04:51:44;;;;;;;10.50;2.47;;;7.70;99.90;;;;;;5082332;28;20857;-77
2023/05/02 04:54:11;;;;;;;9.88;2.80;;;7.70;99.90;;;;;;5075967;28;20756;-78
2023/05/02 04:56:37;;;;;;;9.75;2.10;;;7.70;99.90;;;;;;5078779;28;20418;-75
2023/05/02 04:59:03;;;;;;;5.97;1.73;;;7.60;99.90;;;;;;5064408;28;20942;-77
2023/05/02 05:01:28;;;;;;;5.82;2.20;;;7.70;99.90;;;;;;5078621;28;20421;-77
2023/05/02 05:03:55;;;;;;;8.10;2.33;;;7.80;99.90;;;;;;5082295;28;20493;-75
2023/05/02 05:06:21;;;;;;;10.93;2.90;;;7.80;99.90;;;;;;5071455;28;20432;-75
2023/05/02 05:08:47;;;;;;;9.30;2.53;;;7.80;99.90;;;;;;5086276;28;20460;-78
2023/05/02 05:11:14;;;;;;;9.40;2.43;;;7.80;99.90;;;;;;5084366;28;20447;-75
2023/05/02 05:13:40;;;;;;;10.52;2.80;;;7.80;99.90;;;;;;5066713;28;20428;-76
2023/05/02 05:16:07;;;;;;;13.63;3.97;;;7.70;99.90;;;;;;5071084;28;20426;-75
2023/05/02 05:18:39;;;;;;;9.93;2.58;;;7.60;99.90;;;;;;5067972;28;20439;-76
2023/05/02 05:21:08;;;;;;;8.88;2.33;;;7.70;99.90;;;;;;5077255;28;20428;-75
2023/05/02 05:23:35;;;;;;;9.88;2.40;;;7.50;99.90;;;;;;5078811;28;20954;-75
2023/05/02 05:26:11;;;;;;;11.38;2.92;;;7.50;99.90;;;;;;5086559;28;20428;-75
2023/05/02 05:28:37;;;;;;;7.45;1.92;;;7.40;99.90;;;;;;5069396;28;20782;-76
2023/05/02 05:31:15;;;;;;;13.00;2.50;;;7.60;99.90;;;;;;5084767;28;20433;-75
2023/05/02 05:33:41;;;;;;;10.55;2.97;;;7.70;99.90;;;;;;5086152;28;20432;-75
2023/05/02 05:36:09;;;;;;;7.00;2.00;;;7.70;99.90;;;;;;5075221;28;20424;-76
2023/05/02 05:38:34;;;;;;;11.90;2.85;;;7.70;99.90;;;;;;5063129;28;20771;-75
2023/05/02 05:41:00;;;;;;;8.23;2.57;;;7.80;99.90;;;;;;5062694;28;20419;-76
2023/05/02 05:43:26;;;;;;;7.37;2.40;;;7.80;99.90;;;;;;5068715;28;20879;-76
2023/05/02 05:45:53;;;;;;;10.63;2.85;;;7.80;99.90;;;;;;5066929;28;20446;-76
2023/05/02 05:48:19;;;;;;;9.07;2.40;;;7.80;99.90;;;;;;5071205;28;20533;-75
2023/05/02 05:50:44;;;;;;;14.55;2.90;;;7.90;99.90;;;;;;5064883;28;20473;-77
2023/05/02 05:53:10;;;;;;;10.43;2.63;;;7.80;99.90;;;;;;5069249;28;20446;-76
2023/05/02 05:55:37;;;;;;;5.85;2.08;;;7.90;99.90;;;;;;5073078;28;20415;-76
2023/05/02 05:58:03;;;;;;;7.28;2.00;;;7.90;99.90;;;;;;5071757;28;20464;-76
2023/05/02 06:00:29;;;;;;;12.35;2.97;;;8.10;99.90;;;;;;5076000;28;21005;-76
2023/05/02 06:02:55;;;;;;;8.60;2.33;;;8.10;99.90;;;;;;5086712;28;20508;-76
2023/05/02 06:05:20;;;;;;;8.93;1.90;;;8.00;99.90;;;;;;5068242;28;21021;-75
2023/05/02 06:07:46;;;;;;;7.80;2.73;;;8.20;99.90;;;;;;5067138;28;20884;-76
2023/05/02 06:10:12;;;;;;;13.10;2.33;;;8.30;99.90;;;;;;5078179;28;20551;-78
2023/05/02 06:12:37;;;;;;;9.83;2.90;;;8.20;99.90;;;;;;5065132;28;20416;-77
2023/05/02 06:15:03;;;;;;;10.70;3.17;;;8.20;99.90;;;;;;5079040;28;20426;-76
2023/05/02 06:17:30;;;;;;;11.90;2.80;;;8.30;99.90;;;;;;5086542;28;20445;-76
2023/05/02 06:19:55;;;;;;;9.75;2.63;;;8.20;99.90;;;;;;5075360;28;20427;-76
2023/05/02 06:22:21;;;;;;;8.43;2.60;;;8.30;99.90;;;;;;5066075;28;20414;-76
2023/05/02 06:24:47;;;;;;;9.25;3.05;;;8.40;99.90;;;;;;5075422;28;20421;-77
2023/05/02 06:27:12;;;;;;;13.60;3.58;;;8.30;99.90;;;;;;5064594;28;20912;-76
2023/05/02 06:29:38;;;;;;;11.73;2.63;;;8.40;99.90;;;;;;5076344;28;20425;-76
2023/05/02 06:32:04;;;;;;;8.73;2.50;;;8.30;99.90;;;;;;5076073;28;20425;-78
2023/05/02 06:34:32;;;;;;;9.60;3.28;;;8.30;99.90;;;;;;5075744;28;20939;-78
2023/05/02 06:36:58;;;;;;;9.88;2.50;;;8.20;99.90;;;;;;5059096;28;20423;-76
2023/05/02 06:39:24;;;;;;;10.20;2.53;;;8.50;99.90;;;;;;5073000;28;20479;-77
2023/05/02 06:41:50;;;;;;;9.52;3.08;;;8.20;99.90;;;;;;5065168;28;20433;-76
2023/05/02 06:44:16;;;;;;;12.50;2.90;;;8.40;99.90;;;;;;5083363;28;20453;-75
2023/05/02 06:46:42;;;;;;;11.73;2.63;;;8.40;99.90;;;;;;5084297;28;20438;-76
2023/05/02 06:49:08;;;;;;;10.85;2.72;;;8.40;99.90;;;;;;5084430;28;20434;-76
2023/05/02 06:51:33;;;;;;;13.43;4.00;;;8.40;99.90;;;;;;5060956;28;21156;-75
2023/05/02 06:53:59;;;;;;;9.97;2.87;;;8.40;99.90;;;;;;5060791;28;20431;-78
2023/05/02 06:56:25;;;;;;;10.63;2.57;;;8.30;99.90;;;;;;5067181;28;20415;-75
2023/05/02 06:58:51;;;;;;;9.90;3.10;;;8.20;99.90;;;;;;5082517;28;20422;-73
2023/05/02 07:01:17;;;;;;;10.50;3.05;;;8.40;99.90;;;;;;5084903;28;20459;-74
2023/05/02 07:03:42;;;;;;;13.55;3.58;;;8.30;99.90;;;;;;5084067;28;20425;-75
2023/05/02 07:06:11;;;;;;;11.73;3.85;;;8.40;99.90;;;;;;5077100;28;20417;-75
2023/05/02 07:08:37;;;;;;;9.85;3.33;;;8.40;99.90;;;;;;5070418;28;20949;-74
2023/05/02 07:11:03;;;;;;;11.55;2.78;;;8.40;99.90;;;;;;5065027;28;20419;-74
2023/05/02 07:13:28;;;;;;;13.05;2.60;;;8.20;99.90;;;;;;5080503;28;20491;-75
2023/05/02 07:15:55;;;;;;;10.90;3.33;;;8.10;99.90;;;;;;5084865;28;20406;-75
2023/05/02 07:18:21;;;;;;;15.45;3.35;;;8.30;99.90;;;;;;5084344;28;20437;-75
2023/05/02 07:20:47;;;;;;;9.18;3.10;;;8.50;99.90;;;;;;5051764;28;20426;-74
2023/05/02 07:23:12;;;;;;;9.50;2.92;;;8.50;99.90;;;;;;5076013;28;20426;-75
2023/05/02 07:25:38;;;;;;;11.30;2.92;;;8.50;99.90;;;;;;5074254;28;20419;-73
2023/05/02 07:28:05;;;;;;;10.82;2.80;;;9.00;99.90;;;;;;5060342;28;20416;-74
2023/05/02 07:30:30;;;;;;;13.45;3.45;;;8.70;99.90;;;;;;5045919;28;20410;-76
2023/05/02 07:32:56;;;;;;;8.65;2.70;;;8.50;99.90;;;;;;5083252;28;20417;-73
2023/05/02 07:35:22;;;;;;;9.20;2.47;;;8.50;99.90;;;;;;5082833;28;20477;-76
2023/05/02 07:37:47;;;;;;;9.03;3.20;;;8.60;99.90;;;;;;5062405;28;20946;-75
2023/05/02 07:40:13;;;;;;;9.07;3.03;;;8.40;99.90;;;;;;5070931;28;20430;-75
2023/05/02 07:42:40;;;;;;;11.57;2.57;;;8.60;99.90;;;;;;5064362;28;20413;-76
2023/05/02 07:45:07;;;;;;;13.13;3.15;;;8.80;99.90;;;;;;5068790;28;20439;-75
2023/05/02 07:47:33;;;;;;;10.90;3.13;;;9.00;99.90;;;;;;5068025;28;20400;-75
2023/05/02 07:49:58;;;;;;;6.40;2.47;;;8.90;99.90;;;;;;5068581;28;20415;-75
2023/05/02 07:52:24;;;;;;;10.30;3.78;;;8.80;99.90;;;;;;5068959;28;20412;-74
2023/05/02 07:54:51;;;;;;;11.80;2.80;;;8.90;99.90;;;;;;5069674;28;20488;-74
2023/05/02 07:57:17;;;;;;;9.70;2.77;;;8.90;99.90;;;;;;5067322;28;20451;-75
2023/05/02 07:59:43;;;;;;;9.68;3.45;;;8.90;99.90;;;;;;5068982;28;20438;-75
2023/05/02 08:02:10;;;;;;;7.65;3.00;;;9.30;99.90;;;;;;5068611;28;20440;-75
2023/05/02 08:04:35;;;;;;;9.73;3.08;;;9.40;99.90;;;;;;5061874;28;20990;-75
2023/05/02 08:07:01;;;;;;;9.07;2.33;;;9.70;99.90;;;;;;5061229;28;20617;-75
2023/05/02 08:09:27;;;;;;;10.03;2.70;;;9.70;99.90;;;;;;5061316;28;20417;-75
2023/05/02 08:11:53;;;;;;;12.13;3.13;;;9.90;99.90;;;;;;5059792;28;21000;-75
2023/05/02 08:14:19;;;;;;;9.07;1.98;;;9.50;99.90;;;;;;5059890;28;20431;-75
2023/05/02 08:16:44;;;;;;;11.77;2.85;;;9.30;99.90;;;;;;5073721;28;20491;-75
2023/05/02 08:19:10;;;;;;;9.07;2.13;;;9.40;99.90;;;;;;5073066;28;20454;-74
2023/05/02 08:21:36;;;;;;;10.33;3.40;;;9.40;99.90;;;;;;5059517;28;20782;-75
2023/05/02 08:24:01;;;;;;;7.83;2.70;;;9.40;99.90;;;;;;5061645;28;20477;-73
2023/05/02 08:26:27;;;;;;;14.07;3.37;;;9.30;99.90;;;;;;5060637;28;20926;-75
2023/05/02 08:28:54;;;;;;;8.50;2.63;;;9.30;99.90;;;;;;5058586;28;20466;-74
2023/05/02 08:31:20;;;;;;;6.47;1.90;;;9.40;99.90;;;;;;5063184;28;20513;-74
2023/05/02 08:33:46;;;;;;;10.02;2.85;;;9.30;99.90;;;;;;5065274;28;20463;-75
2023/05/02 08:36:16;;;;;;;6.97;1.90;;;9.40;99.90;;;;;;5061907;28;20926;-75
2023/05/02 08:38:43;;;;;;;7.20;2.05;;;9.60;99.90;;;;;;5063672;28;20427;-76
2023/05/02 08:41:10;;;;;;;9.83;1.80;;;9.50;99.90;;;;;;5060582;28;20522;-76
2023/05/02 08:43:40;;;;;;;7.10;2.17;;;9.70;99.90;;;;;;5060131;28;20428;-76
2023/05/02 08:46:07;;;;;;;9.60;1.90;;;9.50;99.90;;;;;;5058547;28;20949;-76
2023/05/02 08:48:35;;;;;;;7.80;2.42;;;9.80;99.90;;;;;;5067839;28;20450;-77
2023/05/02 08:51:02;;;;;;;5.50;1.70;;;10.00;99.90;;;;;;5060744;28;20803;-75
2023/05/02 08:53:32;;;;;;;4.80;1.55;;;10.10;99.90;;;;;;5062499;28;20462;-76
2023/05/02 08:55:59;;;;;;;2.60;1.02;;;9.70;99.90;;;;;;5054827;28;20404;-76
2023/05/02 08:58:25;;;;;;;6.68;1.88;;;10.10;99.90;;;;;;5067408;28;20415;-76
2023/05/02 09:00:52;;;;;;;7.53;1.67;;;10.10;99.90;;;;;;5073913;28;20768;-75
2023/05/02 09:03:33;;;;;;;5.15;1.40;;;10.30;99.90;;;;;;5068232;28;20794;-75
2023/05/02 09:06:02;;;;;;;4.50;1.13;;;10.20;99.90;;;;;;5071930;28;20423;-74
2023/05/02 09:08:27;;;;;;;5.95;1.50;;;10.40;99.90;;;;;;5076872;28;20418;-76
2023/05/02 09:10:54;;;;;;;8.90;1.30;;;10.00;99.90;;;;;;5054298;28;20471;-76
2023/05/02 09:13:36;;;;;;;5.07;1.10;;;10.00;99.90;;;;;;5074779;28;20419;-77
2023/05/02 09:16:06;;;;;;;4.68;1.10;;;10.10;99.90;;;;;;5053261;28;20507;-77
2023/05/02 09:18:39;;;;;;;4.07;1.35;;;10.30;99.90;;;;;;5067255;28;20523;-76
2023/05/02 09:21:07;;;;;;;5.43;1.27;;;10.30;99.90;;;;;;5053021;28;20430;-76
2023/05/02 09:23:38;;;;;;;4.40;0.70;;;10.40;99.90;;;;;;5085334;28;20463;-76
2023/05/02 09:26:18;;;;;;;6.00;1.25;;;10.50;99.90;;;;;;5070151;28;20426;-76
2023/05/02 09:28:46;;;;;;;4.30;1.40;;;10.40;99.90;;;;;;5073767;28;20514;-75
2023/05/02 09:31:14;;;;;;;7.10;1.52;;;10.50;99.90;;;;;;5075507;28;20498;-75
2023/05/02 09:33:40;;;;;;;6.13;1.40;;;10.50;99.90;;;;;;5072465;28;20451;-79
2023/05/02 09:36:10;;;;;;;5.47;1.38;;;10.30;99.90;;;;;;5059536;28;20923;-76
2023/05/02 09:38:36;;;;;;;7.78;1.42;;;10.50;99.90;;;;;;5063165;28;20997;-76
2023/05/02 09:41:02;;;;;;;4.07;1.27;;;10.80;99.90;;;;;;5063978;28;20476;-77
2023/05/02 09:43:29;;;;;;;8.07;1.73;;;10.60;99.90;;;;;;5059413;28;20939;-76
2023/05/02 09:46:03;;;;;;;8.73;1.70;;;10.90;99.90;;;;;;5059223;28;20427;-75
2023/05/02 09:48:30;;;;;;;6.53;0.88;;;10.80;99.90;;;;;;5063587;28;20449;-76
2023/05/02 09:50:56;;;;;;;5.25;1.75;;;11.00;99.90;;;;;;5044883;28;20425;-74
2023/05/02 09:53:25;;;;;;;9.32;1.80;;;11.40;99.90;;;;;;5069513;28;20426;-75
2023/05/02 09:56:00;;;;;;;4.83;1.10;;;11.60;99.90;;;;;;5071753;28;20554;-75
2023/05/02 09:58:25;;;;;;;4.35;1.15;;;11.30;99.90;;;;;;5061732;28;20512;-74
2023/05/02 10:00:51;;;;;;;5.30;1.02;;;11.40;99.90;;;;;;5078997;28;20516;-80
2023/05/02 10:03:18;;;;;;;2.58;1.02;;;11.30;99.90;;;;;;5064733;28;21504;-76
2023/05/02 10:05:45;;;;;;;7.32;1.50;;;10.90;99.90;;;;;;5065658;28;20423;-75
2023/05/02 10:08:13;;;;;;;6.40;2.00;;;10.80;99.90;;;;;;5077219;28;20414;-75
2023/05/02 10:10:40;;;;;;;5.30;1.52;;;11.20;99.90;;;;;;5086102;28;20414;-75
2023/05/02 10:13:07;;;;;;;4.95;1.33;;;11.30;99.90;;;;;;5085258;28;20429;-75
2023/05/02 10:15:41;;;;;;;6.80;1.40;;;11.40;99.90;;;;;;5078070;28;20432;-74
2023/05/02 10:18:25;;;;;;;14.85;1.80;;;11.80;99.90;;;;;;5065605;28;20403;-74
2023/05/02 10:21:00;;;;;;;5.18;2.05;;;12.30;99.90;;;;;;5086151;28;20417;-74
2023/05/02 10:23:29;;;;;;;4.72;1.30;;;12.00;99.90;;;;;;5086423;28;20410;-74
2023/05/02 10:25:57;;;;;;;3.47;1.23;;;11.30;99.90;;;;;;5085035;28;20942;-75
2023/05/02 10:28:23;;;;;;;5.03;1.10;;;11.00;99.90;;;;;;5080584;28;21054;-75
2023/05/02 10:30:50;;;;;;;5.22;1.67;;;11.20;99.90;;;;;;5063657;28;20519;-75
2023/05/02 10:33:19;;;;;;;8.57;2.13;;;11.50;99.90;;;;;;5063028;28;20516;-75
2023/05/02 10:35:48;;;;;;;4.00;1.10;;;11.40;99.90;;;;;;5065768;28;20449;-75
2023/05/02 10:38:20;;;;;;;6.07;1.37;;;12.10;99.90;;;;;;5067150;28;20487;-77
2023/05/02 10:40:56;;;;;;;4.57;1.50;;;11.80;99.90;;;;;;5079397;28;20442;-75
2023/05/02 10:43:33;;;;;;;4.03;1.30;;;12.00;99.90;;;;;;5064837;28;20396;-75
2023/05/02 10:45:59;;;;;;;4.68;1.00;;;12.00;99.90;;;;;;5047550;28;20400;-75
2023/05/02 10:48:26;;;;;;;3.42;1.08;;;11.40;99.90;;;;;;5066772;28;20794;-74
2023/05/02 10:51:02;;;;;;;6.93;1.20;;;11.90;99.90;;;;;;5086077;28;20390;-75
2023/05/02 10:53:35;;;;;;;6.25;1.17;;;11.70;99.90;;;;;;5063148;28;20468;-76
2023/05/02 10:56:20;;;;;;;6.80;1.90;;;11.40;99.90;;;;;;5065739;28;20491;-76
2023/05/02 10:58:52;;;;;;;5.82;1.13;;;10.90;99.90;;;;;;5062757;28;20955;-76
2023/05/02 11:01:29;;;;;;;4.95;1.50;;;10.70;99.90;;;;;;5065533;28;20990;-73
2023/05/02 11:04:10;;;;;;;7.57;1.33;;;10.80;99.90;;;;;;5064221;28;20779;-75
2023/05/02 11:06:55;;;;;;;7.30;1.67;;;10.70;99.90;;;;;;5064778;28;20418;-75
2023/05/02 11:09:24;;;;;;;7.07;2.17;;;10.80;99.90;;;;;;5064226;28;20427;-75
2023/05/02 11:11:55;;;;;;;6.45;2.05;;;10.80;99.90;;;;;;5065696;28;20411;-75
2023/05/02 11:14:29;;;;;;;7.72;2.00;;;11.10;99.90;;;;;;5065541;28;20444;-75
2023/05/02 11:16:58;;;;;;;10.45;2.45;;;11.30;99.90;;;;;;5048837;28;20827;-74
2023/05/02 11:19:24;;;;;;;5.13;1.73;;;11.00;99.90;;;;;;5064630;28;20531;-76
2023/05/02 11:21:53;;;;;;;6.27;1.17;;;10.80;99.90;;;;;;5069150;28;20481;-75
2023/05/02 11:24:41;;;;;;;4.03;1.40;;;10.80;99.90;;;;;;5070518;28;20568;-75
2023/05/02 11:27:29;;;;;;;6.03;1.40;;;10.50;99.90;;;;;;5070476;28;20426;-75
2023/05/02 11:29:55;;;;;;;7.93;1.97;;;10.50;99.90;;;;;;5090133;28;20520;-74
2023/05/02 11:32:22;;;;;;;5.88;1.40;;;10.70;99.90;;;;;;5088732;28;20405;-73
2023/05/02 11:34:51;;;;;;;5.72;1.58;;;10.80;99.90;;;;;;5069608;28;20687;-74
2023/05/02 11:37:19;;;;;;;6.18;2.80;;;11.10;99.90;;;;;;5103899;28;21061;-73
2023/05/02 11:39:45;;;;;;;2.20;0.85;;;11.00;99.90;;;;;;5087772;28;20477;-74
2023/05/02 11:42:31;;;;;;;5.50;0.90;;;11.60;99.90;;;;;;5088402;28;20410;-74
2023/05/02 11:44:58;;;;;;;2.95;1.00;;;11.40;99.90;;;;;;5086670;28;20429;-74
2023/05/02 11:47:26;;;;;;;4.53;1.27;;;11.60;99.90;;;;;;5070130;28;20403;-74
2023/05/02 11:49:55;;;;;;;5.57;1.80;;;11.70;99.90;;;;;;5070262;28;20414;-75
2023/05/02 11:52:22;;;;;;;5.87;1.00;;;11.40;99.90;;;;;;5069215;28;20489;-75
2023/05/02 11:54:49;;;;;;;3.72;1.42;;;11.50;99.90;;;;;;5069726;28;20407;-75
2023/05/02 11:57:15;;;;;;;5.82;1.52;;;11.30;99.90;;;;;;5066633;28;20434;-76
2023/05/02 11:59:54;;;;;;;7.47;1.67;;;10.70;99.90;;;;;;5069216;28;20423;-75
2023/05/02 12:02:34;;;;;;;4.03;1.30;;;10.50;99.90;;;;;;5066751;28;20411;-75
2023/05/02 12:05:01;;;;;;;5.15;1.40;;;10.50;99.90;;;;;;5067607;28;20477;-75
2023/05/02 12:07:38;;;;;;;4.60;1.38;;;10.30;99.90;;;;;;5071541;28;20757;-75
2023/05/02 12:10:05;;;;;;;4.47;1.45;;;10.80;99.90;;;;;;5066502;28;20425;-76
2023/05/02 12:12:31;;;;;;;3.80;1.20;;;10.70;99.90;;;;;;5067485;28;20447;-76
2023/05/02 12:14:57;;;;;;;6.13;1.40;;;11.00;99.90;;;;;;5066809;28;20431;-76
2023/05/02 12:17:23;;;;;;;5.15;1.38;;;11.00;99.90;;;;;;5064553;28;20417;-76
2023/05/02 12:19:50;;;;;;;4.20;1.80;;;11.20;99.90;;;;;;5051478;28;20941;-75
2023/05/02 12:22:16;;;;;;;6.45;1.33;;;11.20;99.90;;;;;;5049307;28;20905;-74
2023/05/02 12:24:43;;;;;;;3.87;1.00;;;11.40;99.90;;;;;;5050523;28;20433;-75
2023/05/02 12:27:09;;;;;;;8.07;1.30;;;11.20;99.90;;;;;;5067707;28;20430;-76
2023/05/02 12:29:44;;;;;;;4.72;1.08;;;11.00;99.90;;;;;;5051448;28;20494;-76
2023/05/02 12:32:10;;;;;;;2.47;0.95;;;11.30;99.90;;;;;;5067743;28;20455;-76
2023/05/02 12:34:37;;;;;;;7.13;2.38;;;11.20;99.90;;;;;;5068556;28;20427;-76
2023/05/02 12:37:04;;;;;;;4.90;0.93;;;11.30;99.90;;;;;;5079002;28;20450;-75
2023/05/02 12:39:41;;;;;;;10.95;2.65;;;11.20;99.90;;;;;;5066652;28;20526;-76
2023/05/02 12:42:15;;;;;;;3.97;1.10;;;11.90;99.90;;;;;;5067218;28;20804;-75
2023/05/02 12:44:43;;;;;;;3.80;0.90;;;11.60;99.90;;;;;;5067273;28;20439;-76
2023/05/02 12:47:13;;;;;;;4.47;0.93;;;11.50;99.90;;;;;;5067500;28;20427;-74
2023/05/02 12:49:55;;;;;;;2.55;0.55;;;11.30;99.90;;;;;;5066307;28;20507;-75
2023/05/02 12:52:47;;;;;;;3.55;0.60;;;11.90;99.90;;;;;;5070683;28;20942;-76
2023/05/02 12:55:24;;;;;;;1.88;0.93;;;11.60;99.90;;;;;;5064863;28;20957;-76